createdAt,value
2018-07-21T00:00:43.717Z,3.40
2018-07-21T00:03:13.178Z,5.93
2018-07-21T00:05:42.769Z,5.57
2018-07-21T00:08:11.909Z,4.10
2018-07-21T00:10:41.659Z,5.23
2018-07-21T00:13:11.077Z,4.77
2018-07-21T00:15:40.178Z,4.73
2018-07-21T00:18:09.668Z,3.90
2018-07-21T00:20:39.131Z,3.10
2018-07-21T00:23:08.911Z,3.20
2018-07-21T00:25:38.550Z,3.33
2018-07-21T00:28:07.967Z,3.77
2018-07-21T00:30:38.471Z,3.47
2018-07-21T00:33:07.936Z,4.70
2018-07-21T00:35:37.027Z,4.80
2018-07-21T00:38:06.486Z,3.17
2018-07-21T00:40:36.151Z,3.07
2018-07-21T00:43:05.855Z,3.07
2018-07-21T00:45:35.235Z,3.87
2018-07-21T00:48:04.899Z,2.97
2018-07-21T00:50:34.611Z,3.13
2018-07-21T00:53:04.287Z,3.37
2018-07-21T00:55:33.792Z,3.20
2018-07-21T00:58:03.539Z,3.60
2018-07-21T01:00:32.922Z,4.50
2018-07-21T01:03:02.616Z,3.60
2018-07-21T01:05:32.236Z,6.63
2018-07-21T01:08:01.968Z,3.77
2018-07-21T01:10:31.966Z,5.43
2018-07-21T01:13:01.862Z,3.57
2018-07-21T01:15:31.495Z,3.23
2018-07-21T01:18:02.012Z,6.70
2018-07-21T01:20:31.391Z,4.77
2018-07-21T01:23:01.332Z,2.77
2018-07-21T01:25:31.244Z,3.03
2018-07-21T01:28:00.995Z,3.60
2018-07-21T01:30:30.812Z,2.97
2018-07-21T01:33:00.186Z,3.30
2018-07-21T01:35:29.875Z,3.57
2018-07-21T01:37:59.327Z,3.90
2018-07-21T01:40:28.414Z,3.23
2018-07-21T01:42:57.551Z,3.17
2018-07-21T01:45:27.186Z,4.63
2018-07-21T01:47:57.188Z,3.50
2018-07-21T01:50:26.898Z,3.30
2018-07-21T01:52:56.322Z,4.60
2018-07-21T01:55:26.517Z,3.30
2018-07-21T01:57:56.084Z,4.00
2018-07-21T02:00:25.471Z,3.10
2018-07-21T02:02:55.270Z,3.13
2018-07-21T02:05:25.187Z,3.57
2018-07-21T02:07:54.602Z,3.00
2018-07-21T02:10:23.962Z,3.07
2018-07-21T02:12:53.764Z,3.00
2018-07-21T02:15:23.811Z,3.97
2018-07-21T02:17:54.008Z,5.17
2018-07-21T02:20:23.395Z,5.13
2018-07-21T02:22:53.595Z,3.37
2018-07-21T02:25:23.344Z,2.97
2018-07-21T02:27:53.314Z,2.80
2018-07-21T02:30:22.984Z,2.67
2018-07-21T02:32:52.664Z,3.27
2018-07-21T02:35:22.444Z,3.47
2018-07-21T02:37:52.283Z,3.20
2018-07-21T02:40:22.012Z,2.90
2018-07-21T02:42:51.700Z,2.93
2018-07-21T02:45:21.477Z,3.07
2018-07-21T02:47:51.732Z,3.07
2018-07-21T02:50:21.171Z,3.23
2018-07-21T02:52:50.841Z,3.00
2018-07-21T02:55:20.282Z,3.93
2018-07-21T02:57:52.883Z,3.67
2018-07-21T03:00:22.596Z,3.00
2018-07-21T03:02:52.249Z,3.63
2018-07-21T03:05:21.945Z,3.37
2018-07-21T03:07:51.355Z,3.03
2018-07-21T03:10:21.156Z,3.13
2018-07-21T03:12:50.900Z,5.57
2018-07-21T03:15:20.339Z,5.47
2018-07-21T03:17:50.068Z,3.30
2018-07-21T03:20:19.553Z,4.27
2018-07-21T03:22:49.293Z,4.20
2018-07-21T03:25:19.072Z,4.90
2018-07-21T03:27:48.496Z,4.90
2018-07-21T03:30:18.202Z,3.67
2018-07-21T03:32:47.854Z,3.30
2018-07-21T03:35:18.035Z,4.60
2018-07-21T03:37:47.671Z,4.10
2018-07-21T03:40:17.595Z,4.13
2018-07-21T03:42:47.244Z,3.40
2018-07-21T03:45:16.979Z,3.30
2018-07-21T03:47:46.730Z,3.57
2018-07-21T03:50:15.883Z,2.93
2018-07-21T03:52:45.952Z,3.27
2018-07-21T03:55:15.412Z,3.53
2018-07-21T03:57:45.414Z,3.73
2018-07-21T04:00:15.532Z,4.23
2018-07-21T04:02:44.957Z,3.57
2018-07-21T04:05:14.744Z,3.30
2018-07-21T04:07:44.661Z,4.10
2018-07-21T04:10:14.616Z,4.67
2018-07-21T04:12:44.329Z,3.47
2018-07-21T04:15:13.491Z,3.87
2018-07-21T04:17:43.129Z,4.27
2018-07-21T04:20:12.279Z,4.23
2018-07-21T04:22:42.024Z,3.60
2018-07-21T04:25:11.799Z,3.67
2018-07-21T04:27:41.496Z,4.10
2018-07-21T04:30:10.943Z,4.30
2018-07-21T04:32:40.660Z,4.00
2018-07-21T04:35:10.121Z,5.33
2018-07-21T04:37:39.771Z,3.40
2018-07-21T04:40:09.849Z,4.23
2018-07-21T04:42:39.535Z,4.03
2018-07-21T04:45:09.290Z,3.83
2018-07-21T04:47:38.705Z,3.90
2018-07-21T04:50:08.387Z,5.33
2018-07-21T04:52:38.085Z,3.23
2018-07-21T04:55:07.539Z,3.37
2018-07-21T04:57:37.193Z,5.47
2018-07-21T05:00:07.661Z,6.17
2018-07-21T05:02:37.631Z,4.57
2018-07-21T05:05:07.651Z,5.17
2018-07-21T05:07:37.395Z,5.57
2018-07-21T05:10:07.371Z,5.53
2018-07-21T05:12:37.084Z,4.47
2018-07-21T05:15:06.886Z,3.93
2018-07-21T05:17:36.605Z,4.87
2018-07-21T05:20:06.692Z,4.10
2018-07-21T05:22:36.327Z,6.17
2018-07-21T05:25:06.955Z,3.90
2018-07-21T05:27:36.399Z,5.17
2018-07-21T05:30:07.020Z,4.17
2018-07-21T05:32:36.889Z,4.23
2018-07-21T05:35:06.939Z,4.53
2018-07-21T05:37:36.384Z,4.57
2018-07-21T05:40:06.528Z,4.23
2018-07-21T05:42:36.215Z,4.70
2018-07-21T05:45:06.337Z,4.10
2018-07-21T05:47:36.565Z,4.13
2018-07-21T05:50:07.074Z,4.10
2018-07-21T05:52:37.132Z,3.83
2018-07-21T05:55:06.549Z,4.10
2018-07-21T05:57:36.652Z,8.77
2018-07-21T06:00:11.044Z,4.60
2018-07-21T06:02:40.839Z,4.47
2018-07-21T06:05:10.430Z,3.87
2018-07-21T06:07:39.888Z,4.10
2018-07-21T06:10:09.632Z,4.97
2018-07-21T06:12:39.648Z,6.43
2018-07-21T06:15:09.121Z,4.37
2018-07-21T06:17:38.827Z,4.13
2018-07-21T06:20:09.360Z,3.57
2018-07-21T06:22:38.810Z,5.37
2018-07-21T06:25:08.171Z,4.63
2018-07-21T06:27:38.172Z,3.93
2018-07-21T06:30:07.704Z,3.93
2018-07-21T06:32:37.511Z,3.67
2018-07-21T06:35:07.665Z,3.67
2018-07-21T06:37:37.650Z,4.40
2018-07-21T06:40:07.684Z,4.03
2018-07-21T06:42:38.232Z,3.70
2018-07-21T06:45:07.976Z,4.73
2018-07-21T06:47:38.080Z,4.30
2018-07-21T06:50:08.524Z,4.00
2018-07-21T06:52:38.885Z,3.60
2018-07-21T06:55:11.377Z,3.70
2018-07-21T06:57:43.288Z,4.17
2018-07-21T07:00:13.029Z,3.67
2018-07-21T07:02:42.809Z,3.77
2018-07-21T07:05:12.273Z,9.13
2018-07-21T07:07:42.301Z,3.50
2018-07-21T07:10:11.835Z,6.17
2018-07-21T07:12:41.903Z,6.63
2018-07-21T07:15:11.316Z,3.60
2018-07-21T07:17:41.028Z,4.70
2018-07-21T07:20:10.996Z,4.50
2018-07-21T07:22:40.975Z,3.90
2018-07-21T07:25:10.746Z,4.13
2018-07-21T07:27:40.730Z,3.90
2018-07-21T07:30:10.140Z,5.63
2018-07-21T07:32:39.832Z,4.60
2018-07-21T07:35:09.609Z,7.47
2018-07-21T07:37:39.433Z,4.23
2018-07-21T07:40:08.840Z,4.17
2018-07-21T07:42:38.625Z,4.20
2018-07-21T07:45:08.343Z,4.37
2018-07-21T07:47:38.062Z,5.30
2018-07-21T07:50:07.938Z,4.07
2018-07-21T07:52:37.686Z,4.67
2018-07-21T07:55:07.861Z,4.23
2018-07-21T07:57:38.026Z,4.20
2018-07-21T08:00:07.773Z,4.13
2018-07-21T08:02:36.931Z,3.90
2018-07-21T08:05:06.677Z,4.33
2018-07-21T08:07:36.755Z,3.97
2018-07-21T08:10:07.179Z,4.40
2018-07-21T08:12:37.460Z,3.97
2018-07-21T08:15:06.880Z,4.80
2018-07-21T08:17:36.849Z,3.90
2018-07-21T08:20:06.560Z,4.20
2018-07-21T08:22:36.543Z,3.73
2018-07-21T08:25:06.285Z,4.63
2018-07-21T08:27:35.984Z,3.40
2018-07-21T08:30:07.531Z,3.97
2018-07-21T08:32:36.983Z,4.53
2018-07-21T08:35:07.224Z,5.13
2018-07-21T08:37:37.715Z,3.63
2018-07-21T08:40:08.022Z,5.70
2018-07-21T08:42:38.647Z,4.87
2018-07-21T08:45:09.036Z,3.63
2018-07-21T08:47:38.628Z,4.13
2018-07-21T08:50:08.565Z,4.17
2018-07-21T08:52:38.343Z,3.53
2018-07-21T08:55:08.580Z,3.90
2018-07-21T08:57:38.240Z,3.37
2018-07-21T09:00:08.225Z,3.70
2018-07-21T09:02:37.959Z,4.37
2018-07-21T09:05:08.322Z,5.37
2018-07-21T09:07:38.160Z,3.53
2018-07-21T09:10:08.072Z,3.70
2018-07-21T09:12:38.020Z,4.83
2018-07-21T09:15:08.472Z,4.33
2018-07-21T09:17:38.165Z,3.70
2018-07-21T09:20:07.625Z,3.63
2018-07-21T09:22:37.371Z,4.30
2018-07-21T09:25:07.876Z,3.77
2018-07-21T09:27:37.288Z,4.93
2018-07-21T09:30:07.050Z,5.57
2018-07-21T09:32:37.028Z,5.27
2018-07-21T09:35:06.999Z,3.93
2018-07-21T09:37:36.988Z,4.90
2018-07-21T09:40:06.978Z,3.90
2018-07-21T09:42:36.780Z,4.90
2018-07-21T09:45:06.800Z,4.30
2018-07-21T09:47:35.926Z,4.97
2018-07-21T09:50:06.939Z,4.00
2018-07-21T09:52:36.610Z,4.27
2018-07-21T09:55:07.127Z,4.20
2018-07-21T09:57:37.194Z,3.83
2018-07-21T10:00:09.488Z,4.40
2018-07-21T10:02:39.427Z,4.57
2018-07-21T10:05:09.676Z,4.43
2018-07-21T10:07:39.392Z,3.43
2018-07-21T10:10:09.906Z,4.30
2018-07-21T10:12:39.760Z,6.73
2018-07-21T10:15:10.095Z,4.53
2018-07-21T10:17:40.064Z,4.23
2018-07-21T10:20:09.820Z,4.33
2018-07-21T10:22:40.304Z,3.90
2018-07-21T10:25:15.266Z,4.43
2018-07-21T10:27:49.890Z,5.10
2018-07-21T10:30:19.958Z,4.43
2018-07-21T10:32:49.217Z,4.20
2018-07-21T10:35:18.680Z,4.30
2018-07-21T10:37:48.697Z,4.43
2018-07-21T10:40:19.114Z,4.67
2018-07-21T10:42:48.931Z,5.50
2018-07-21T10:45:19.220Z,6.27
2018-07-21T10:47:48.932Z,5.43
2018-07-21T10:50:18.780Z,5.20
2018-07-21T10:52:48.460Z,7.20
2018-07-21T10:55:18.536Z,6.10
2018-07-21T10:57:47.928Z,8.23
2018-07-21T11:00:18.075Z,6.47
2018-07-21T11:02:47.729Z,9.17
2018-07-21T11:05:17.485Z,6.27
2018-07-21T11:07:46.888Z,7.40
2018-07-21T11:10:16.412Z,6.47
2018-07-21T11:12:46.160Z,6.97
2018-07-21T11:15:15.716Z,5.97
2018-07-21T11:17:45.532Z,5.33
2018-07-21T11:20:15.319Z,4.13
2018-07-21T11:22:45.520Z,5.63
2018-07-21T11:25:14.961Z,4.77
2018-07-21T11:27:44.612Z,3.90
2018-07-21T11:30:14.663Z,3.73
2018-07-21T11:32:44.108Z,4.17
2018-07-21T11:35:14.240Z,4.10
2018-07-21T11:37:44.363Z,5.27
2018-07-21T11:40:14.625Z,5.00
2018-07-21T11:42:44.283Z,3.17
2018-07-21T11:45:13.723Z,3.20
2018-07-21T11:47:43.443Z,3.60
2018-07-21T11:50:13.280Z,5.10
2018-07-21T11:52:43.807Z,3.50
2018-07-21T11:55:13.620Z,3.83
2018-07-21T11:57:43.360Z,5.47
2018-07-21T12:00:13.112Z,3.80
2018-07-21T12:02:43.085Z,4.37
2018-07-21T12:05:12.823Z,3.50
2018-07-21T12:07:42.463Z,3.27
2018-07-21T12:10:12.559Z,3.70
2018-07-21T12:12:41.965Z,3.73
2018-07-21T12:15:11.717Z,3.53
2018-07-21T12:17:41.217Z,4.13
2018-07-21T12:20:11.398Z,3.93
2018-07-21T12:22:41.232Z,5.70
2018-07-21T12:25:10.748Z,4.27
2018-07-21T12:27:40.463Z,4.20
2018-07-21T12:30:10.292Z,4.30
2018-07-21T12:32:40.373Z,4.30
2018-07-21T12:35:18.913Z,5.20
2018-07-21T12:37:48.602Z,5.20
2018-07-21T12:40:18.244Z,4.73
2018-07-21T12:42:47.720Z,5.00
2018-07-21T12:45:17.452Z,4.93
2018-07-21T12:47:47.201Z,4.63
2018-07-21T12:50:16.618Z,5.17
2018-07-21T12:52:46.291Z,6.13
2018-07-21T12:55:15.394Z,5.63
2018-07-21T12:57:44.937Z,6.97
2018-07-21T13:00:14.636Z,6.00
2018-07-21T13:02:44.901Z,5.80
2018-07-21T13:05:14.675Z,5.03
2018-07-21T13:07:44.124Z,5.13
2018-07-21T13:10:13.245Z,5.23
2018-07-21T13:12:42.980Z,5.77
2018-07-21T13:15:13.224Z,6.93
2018-07-21T13:17:43.220Z,5.83
2018-07-21T13:20:12.631Z,4.93
2018-07-21T13:22:42.088Z,5.30
2018-07-21T13:25:12.041Z,4.80
2018-07-21T13:27:41.723Z,4.80
2018-07-21T13:30:11.387Z,4.50
2018-07-21T13:32:41.137Z,4.60
2018-07-21T13:35:11.336Z,4.90
2018-07-21T13:37:41.060Z,4.70
2018-07-21T13:40:11.466Z,4.30
2018-07-21T13:42:41.428Z,4.27
2018-07-21T13:45:10.841Z,4.53
2018-07-21T13:47:40.541Z,3.93
2018-07-21T13:50:10.184Z,4.30
2018-07-21T13:52:39.611Z,6.37
2018-07-21T13:55:09.034Z,6.37
2018-07-21T13:57:39.168Z,4.40
2018-07-21T14:00:09.184Z,4.30
2018-07-21T14:02:38.968Z,3.90
2018-07-21T14:05:08.416Z,4.20
2018-07-21T14:07:38.188Z,4.07
2018-07-21T14:10:07.963Z,4.97
2018-07-21T14:12:37.863Z,5.17
2018-07-21T14:15:07.308Z,4.03
2018-07-21T14:17:37.100Z,3.40
2018-07-21T14:20:06.852Z,3.90
2018-07-21T14:22:36.560Z,3.93
2018-07-21T14:25:05.977Z,5.30
2018-07-21T14:27:35.978Z,3.90
2018-07-21T14:30:07.498Z,3.70
2018-07-21T14:32:36.939Z,3.90
2018-07-21T14:35:07.256Z,3.93
2018-07-21T14:37:38.368Z,4.73
2018-07-21T14:40:08.436Z,4.00
2018-07-21T14:42:37.884Z,4.00
2018-07-21T14:45:07.648Z,3.73
2018-07-21T14:47:37.092Z,5.47
2018-07-21T14:50:07.527Z,4.63
2018-07-21T14:52:37.796Z,3.97
2018-07-21T14:55:07.795Z,3.93
2018-07-21T14:57:37.562Z,4.13
2018-07-21T15:00:07.278Z,3.47
2018-07-21T15:02:36.724Z,4.20
2018-07-21T15:05:06.619Z,3.50
2018-07-21T15:07:36.301Z,4.33
2018-07-21T15:10:06.159Z,4.00
2018-07-21T15:12:35.789Z,3.63
2018-07-21T15:15:06.612Z,3.53
2018-07-21T15:17:36.320Z,4.03
2018-07-21T15:20:06.253Z,4.00
2018-07-21T15:22:36.256Z,3.50
2018-07-21T15:25:05.808Z,3.57
2018-07-21T15:27:35.750Z,4.40
2018-07-21T15:30:06.037Z,3.70
2018-07-21T15:32:35.676Z,3.83
2018-07-21T15:35:05.438Z,8.63
2018-07-21T15:37:34.554Z,4.00
2018-07-21T15:40:04.596Z,4.03
2018-07-21T15:42:34.611Z,5.63
2018-07-21T15:45:04.681Z,4.53
2018-07-21T15:47:34.367Z,4.47
2018-07-21T15:50:04.135Z,4.07
2018-07-21T15:52:34.304Z,5.17
2018-07-21T15:55:03.757Z,4.60
2018-07-21T15:57:33.505Z,4.77
2018-07-21T16:00:03.528Z,4.10
2018-07-21T16:02:33.553Z,4.47
2018-07-21T16:05:03.524Z,4.20
2018-07-21T16:07:33.848Z,6.53
2018-07-21T16:10:03.964Z,4.77
2018-07-21T16:12:33.749Z,4.40
2018-07-21T16:15:03.866Z,4.50
2018-07-21T16:17:33.648Z,4.47
2018-07-21T16:20:02.891Z,4.30
2018-07-21T16:22:32.546Z,5.10
2018-07-21T16:25:02.176Z,4.97
2018-07-21T16:27:31.931Z,4.43
2018-07-21T16:30:01.663Z,4.80
2018-07-21T16:32:31.139Z,5.73
2018-07-21T16:35:01.569Z,4.33
2018-07-21T16:37:30.982Z,4.50
2018-07-21T16:40:00.424Z,4.80
2018-07-21T16:42:29.826Z,5.17
2018-07-21T16:44:58.979Z,4.90
2018-07-21T16:47:28.663Z,4.80
2018-07-21T16:49:58.186Z,4.70
2018-07-21T16:52:28.198Z,5.23
2018-07-21T16:54:57.971Z,5.47
2018-07-21T16:57:28.222Z,5.63
2018-07-21T16:59:58.050Z,5.27
2018-07-21T17:02:29.124Z,5.50
2018-07-21T17:05:05.531Z,5.03
2018-07-21T17:07:34.973Z,8.73
2018-07-21T17:10:04.420Z,5.70
2018-07-21T17:12:34.604Z,5.70
2018-07-21T17:15:04.305Z,5.83
2018-07-21T17:17:33.711Z,5.57
2018-07-21T17:20:03.144Z,5.40
2018-07-21T17:22:32.575Z,5.63
2018-07-21T17:25:02.669Z,7.13
2018-07-21T17:27:32.795Z,6.17
2018-07-21T17:30:02.508Z,5.93
2018-07-21T17:32:32.104Z,7.50
2018-07-21T17:35:02.159Z,6.03
2018-07-21T17:37:31.558Z,5.90
2018-07-21T17:40:01.006Z,6.10
2018-07-21T17:42:30.411Z,5.70
2018-07-21T17:44:59.808Z,5.70
2018-07-21T17:47:29.464Z,5.90
2018-07-21T17:49:59.479Z,8.17
2018-07-21T17:52:28.956Z,7.17
2018-07-21T17:54:58.728Z,6.90
2018-07-21T17:57:28.159Z,7.17
2018-07-21T17:59:57.668Z,6.53
2018-07-21T18:02:27.718Z,7.40
2018-07-21T18:04:57.186Z,7.73
2018-07-21T18:07:26.823Z,8.23
2018-07-21T18:09:56.945Z,7.10
2018-07-21T18:12:26.692Z,7.67
2018-07-21T18:14:55.848Z,7.77
2018-07-21T18:17:25.563Z,8.00
2018-07-21T18:19:55.339Z,7.70
2018-07-21T18:22:24.755Z,7.80
2018-07-21T18:24:54.191Z,7.83
2018-07-21T18:27:23.921Z,8.30
2018-07-21T18:29:53.897Z,8.27
2018-07-21T18:32:23.343Z,8.03
2018-07-21T18:34:52.748Z,7.07
2018-07-21T18:37:22.795Z,7.20
2018-07-21T18:39:52.454Z,7.73
2018-07-21T18:42:22.335Z,7.90
2018-07-21T18:44:51.736Z,8.13
2018-07-21T18:47:21.175Z,7.10
2018-07-21T18:49:50.876Z,6.87
2018-07-21T18:52:20.328Z,7.03
2018-07-21T18:54:49.988Z,6.83
2018-07-21T18:57:19.975Z,7.13
2018-07-21T18:59:49.403Z,6.23
2018-07-21T19:02:19.351Z,6.07
2018-07-21T19:04:49.393Z,6.20
2018-07-21T19:07:19.080Z,7.67
2018-07-21T19:09:49.120Z,5.33
2018-07-21T19:12:24.368Z,5.60
2018-07-21T19:14:54.004Z,5.73
2018-07-21T19:17:23.757Z,5.60
2018-07-21T19:19:58.279Z,7.63
2018-07-21T19:22:27.975Z,5.60
2018-07-21T19:24:58.339Z,5.33
2018-07-21T19:27:31.079Z,6.10
2018-07-21T19:30:01.937Z,7.40
2018-07-21T19:32:36.667Z,5.70
2018-07-21T19:35:15.635Z,6.30
2018-07-21T19:37:49.319Z,5.83
2018-07-21T19:40:20.313Z,5.77
2018-07-21T19:42:50.140Z,5.83
2018-07-21T19:45:20.485Z,6.47
2018-07-21T19:47:50.007Z,6.07
2018-07-21T19:50:20.105Z,6.43
2018-07-21T19:52:49.954Z,6.10
2018-07-21T19:55:19.769Z,5.70
2018-07-21T19:57:49.745Z,5.93
2018-07-21T20:00:19.450Z,5.87
2018-07-21T20:02:49.183Z,6.47
2018-07-21T20:05:18.714Z,7.00
2018-07-21T20:07:48.272Z,7.07
2018-07-21T20:10:17.668Z,6.70
2018-07-21T20:12:47.340Z,6.17
2018-07-21T20:15:16.743Z,6.20
2018-07-21T20:17:46.192Z,6.50
2018-07-21T20:20:15.876Z,6.40
2018-07-21T20:22:45.321Z,6.63
2018-07-21T20:25:14.727Z,6.30
2018-07-21T20:27:44.403Z,6.73
2018-07-21T20:30:14.783Z,7.13
2018-07-21T20:32:44.316Z,10.65
2018-07-21T20:35:13.740Z,8.63
2018-07-21T20:37:44.132Z,8.53
2018-07-21T20:40:13.812Z,9.00
2018-07-21T20:42:42.961Z,8.40
2018-07-21T20:45:13.184Z,8.43
2018-07-21T20:47:42.619Z,8.03
2018-07-21T20:50:12.120Z,7.97
2018-07-21T20:52:41.899Z,8.30
2018-07-21T20:55:11.307Z,8.67
2018-07-21T20:57:41.084Z,9.47
2018-07-21T21:00:11.048Z,9.13
2018-07-21T21:02:41.452Z,7.63
2018-07-21T21:05:10.915Z,8.60
2018-07-21T21:07:40.360Z,9.30
2018-07-21T21:10:09.998Z,9.63
2018-07-21T21:12:39.703Z,10.50
2018-07-21T21:15:09.528Z,9.33
2018-07-21T21:17:38.983Z,9.30
2018-07-21T21:20:08.392Z,10.53
2018-07-21T21:22:38.162Z,10.43
2018-07-21T21:25:08.468Z,10.00
2018-07-21T21:27:37.915Z,8.33
2018-07-21T21:30:08.179Z,8.17
2018-07-21T21:32:37.932Z,8.67
2018-07-21T21:35:07.866Z,8.63
2018-07-21T21:37:37.343Z,9.13
2018-07-21T21:40:06.752Z,9.53
2018-07-21T21:42:36.224Z,9.27
2018-07-21T21:45:05.832Z,10.10
2018-07-21T21:47:34.978Z,11.00
2018-07-21T21:50:04.416Z,10.30
2018-07-21T21:52:33.865Z,9.87
2018-07-21T21:55:03.637Z,10.40
2018-07-21T21:57:32.787Z,10.43
2018-07-21T22:00:02.757Z,9.43
2018-07-21T22:02:32.682Z,10.13
2018-07-21T22:05:02.703Z,10.00
2018-07-21T22:07:32.148Z,10.40
2018-07-21T22:10:01.819Z,9.77
2018-07-21T22:12:31.521Z,9.83
2018-07-21T22:15:01.420Z,9.43
2018-07-21T22:17:31.380Z,10.10
2018-07-21T22:20:01.064Z,8.90
2018-07-21T22:22:30.755Z,8.93
2018-07-21T22:25:00.709Z,8.60
2018-07-21T22:27:30.414Z,9.50
2018-07-21T22:30:00.412Z,9.00
2018-07-21T22:32:30.389Z,9.97
2018-07-21T22:34:59.670Z,10.37
2018-07-21T22:37:29.320Z,10.57
2018-07-21T22:39:59.035Z,11.07
2018-07-21T22:42:28.765Z,10.47
2018-07-21T22:44:58.487Z,11.30
2018-07-21T22:47:28.304Z,11.70
2018-07-21T22:49:58.000Z,11.23
2018-07-21T22:52:28.208Z,10.20
2018-07-21T22:54:57.713Z,9.73
2018-07-21T22:57:27.433Z,9.27
2018-07-21T22:59:57.447Z,10.50
2018-07-21T23:02:27.236Z,10.93
2018-07-21T23:04:57.377Z,10.57
2018-07-21T23:07:26.779Z,9.37
2018-07-21T23:09:56.799Z,9.97
2018-07-21T23:12:26.504Z,9.33
2018-07-21T23:14:56.211Z,9.07
2018-07-21T23:17:25.606Z,10.27
2018-07-21T23:19:55.835Z,9.93
2018-07-21T23:22:25.236Z,10.53
2018-07-21T23:24:55.251Z,10.67
2018-07-21T23:27:25.269Z,10.40
2018-07-21T23:29:54.711Z,10.50
2018-07-21T23:32:24.722Z,9.50
2018-07-21T23:34:54.173Z,10.27
2018-07-21T23:37:23.900Z,11.43
2018-07-21T23:39:53.344Z,10.93
2018-07-21T23:42:23.039Z,10.33
2018-07-21T23:44:53.023Z,10.17
2018-07-21T23:47:22.433Z,10.20
2018-07-21T23:49:52.226Z,9.73
2018-07-21T23:52:21.620Z,9.30
2018-07-21T23:54:51.571Z,9.30
2018-07-21T23:57:21.260Z,8.57
2018-07-21T23:59:50.986Z,9.40
